Time;durP1;ratioP1;P1;durP2;ratioP2;P2;SDS_P1;SDS_P2;PMS_P1;PMS_P2;Temp;Humidity;BMP_temperature;BMP_pressure;BME280_temperature;BME280_humidity;BME280_pressure;Samples;Min_cycle;Max_cycle;Signal;HPM_P1;HPM_P2
2022/08/06 00:00:41;;;;;;;4.90;1.17;;;14.00;99.90;;;;;;5071830;28;20179;-73
2022/08/06 00:03:07;;;;;;;5.70;1.55;;;14.00;99.90;;;;;;5071804;28;20048;-73
2022/08/06 00:05:33;;;;;;;5.63;1.00;;;14.00;99.90;;;;;;5071745;28;20044;-73
2022/08/06 00:07:59;;;;;;;5.20;1.40;;;13.90;99.90;;;;;;5071803;28;20041;-73
2022/08/06 00:10:25;;;;;;;5.60;0.90;;;13.90;99.90;;;;;;5071802;28;20054;-73
2022/08/06 00:12:52;;;;;;;5.50;1.00;;;13.80;99.90;;;;;;5071741;28;20037;-73
2022/08/06 00:15:18;;;;;;;9.60;1.40;;;13.80;99.90;;;;;;5071643;28;20040;-73
2022/08/06 00:17:45;;;;;;;6.28;0.98;;;13.70;99.90;;;;;;5071677;28;20115;-73
2022/08/06 00:20:12;;;;;;;7.07;1.48;;;13.70;99.90;;;;;;5071549;28;20040;-73
2022/08/06 00:22:38;;;;;;;5.15;1.08;;;13.70;99.90;;;;;;5071929;28;20040;-73
2022/08/06 00:25:04;;;;;;;4.05;0.90;;;13.70;99.90;;;;;;5071492;28;20549;-73
2022/08/06 00:27:30;;;;;;;4.82;1.10;;;13.60;99.90;;;;;;5054957;28;20044;-72
2022/08/06 00:29:56;;;;;;;5.47;1.20;;;13.60;99.90;;;;;;5071840;28;20033;-74
2022/08/06 00:32:21;;;;;;;5.70;1.42;;;13.50;99.90;;;;;;5071540;28;20036;-74
2022/08/06 00:34:47;;;;;;;6.75;1.50;;;13.50;99.90;;;;;;5072809;28;20071;-73
2022/08/06 00:37:13;;;;;;;5.55;1.10;;;13.50;99.90;;;;;;5071434;28;20068;-72
2022/08/06 00:39:38;;;;;;;4.28;1.45;;;13.40;99.90;;;;;;5071747;28;20037;-73
2022/08/06 00:42:04;;;;;;;6.10;1.50;;;13.40;99.90;;;;;;5071451;28;20544;-73
2022/08/06 00:44:30;;;;;;;5.88;1.08;;;13.30;99.90;;;;;;5071592;28;20048;-73
2022/08/06 00:46:55;;;;;;;6.65;1.23;;;13.30;99.90;;;;;;5054621;28;20072;-73
2022/08/06 00:49:21;;;;;;;5.38;1.02;;;13.20;99.90;;;;;;5071354;28;20032;-73
2022/08/06 00:51:46;;;;;;;5.90;1.30;;;13.20;99.90;;;;;;5054964;28;20033;-74
2022/08/06 00:54:12;;;;;;;5.30;1.40;;;13.20;99.90;;;;;;5071566;28;20045;-74
2022/08/06 00:56:38;;;;;;;6.25;1.40;;;13.20;99.90;;;;;;5071256;28;20424;-72
2022/08/06 00:59:03;;;;;;;3.40;1.00;;;13.30;99.90;;;;;;5071613;28;20036;-73
2022/08/06 01:01:30;;;;;;;5.07;0.90;;;13.20;99.90;;;;;;5054562;28;20464;-73
2022/08/06 01:03:56;;;;;;;6.82;1.58;;;13.30;99.90;;;;;;5071412;28;20105;-73
2022/08/06 01:06:22;;;;;;;3.97;1.20;;;13.30;99.90;;;;;;5071168;28;20481;-73
2022/08/06 01:08:48;;;;;;;3.67;1.15;;;13.20;99.90;;;;;;5071469;28;20048;-73
2022/08/06 01:11:13;;;;;;;5.70;1.00;;;13.20;99.90;;;;;;5072138;28;20509;-73
2022/08/06 01:13:40;;;;;;;5.50;1.25;;;13.20;99.90;;;;;;5075121;28;20516;-73
2022/08/06 01:16:16;;;;;;;4.25;1.08;;;13.20;99.90;;;;;;5074677;28;20045;-73
2022/08/06 01:19:01;;;;;;;4.25;1.10;;;13.20;99.90;;;;;;5074692;28;20055;-72
2022/08/06 01:21:32;;;;;;;4.82;1.00;;;13.20;99.90;;;;;;5074887;28;20048;-74
2022/08/06 01:24:24;;;;;;;5.10;0.80;;;13.10;99.90;;;;;;5074686;28;20501;-74
2022/08/06 01:27:25;;;;;;;3.75;1.02;;;13.00;99.90;;;;;;5074746;28;20519;-73
2022/08/06 01:29:55;;;;;;;5.25;1.20;;;12.90;99.90;;;;;;5074754;28;20382;-73
2022/08/06 01:32:33;;;;;;;3.45;1.00;;;12.80;99.90;;;;;;5074556;28;20050;-74
2022/08/06 01:35:05;;;;;;;4.93;0.85;;;12.80;99.90;;;;;;5074559;28;20036;-72
2022/08/06 01:37:47;;;;;;;2.55;0.90;;;12.70;99.90;;;;;;5074415;28;20090;-72
2022/08/06 01:40:22;;;;;;;6.57;1.10;;;12.70;99.90;;;;;;5074375;28;20048;-73
2022/08/06 01:42:49;;;;;;;3.85;1.20;;;12.70;99.90;;;;;;5074323;28;20056;-73
2022/08/06 01:45:19;;;;;;;4.57;1.30;;;12.60;99.90;;;;;;5074073;28;20040;-73
2022/08/06 01:47:49;;;;;;;4.72;1.08;;;12.60;99.90;;;;;;5074166;28;20546;-73
2022/08/06 01:50:17;;;;;;;3.45;1.13;;;12.60;99.90;;;;;;5074121;28;20584;-73
2022/08/06 01:52:44;;;;;;;6.22;1.40;;;12.60;99.90;;;;;;5074111;28;20440;-73
2022/08/06 01:55:20;;;;;;;4.28;1.25;;;12.50;99.90;;;;;;5073957;28;20043;-73
2022/08/06 01:57:59;;;;;;;4.70;1.27;;;12.60;99.90;;;;;;5073997;28;20052;-73
2022/08/06 02:00:25;;;;;;;3.80;1.55;;;12.50;99.90;;;;;;5074266;28;20047;-73
2022/08/06 02:02:52;;;;;;;3.47;1.10;;;12.40;99.90;;;;;;5073929;28;20094;-73
2022/08/06 02:05:21;;;;;;;3.97;1.80;;;12.40;99.90;;;;;;5073870;28;20041;-73
2022/08/06 02:07:51;;;;;;;3.75;1.23;;;12.30;99.90;;;;;;5057160;28;20093;-73
2022/08/06 02:10:21;;;;;;;5.63;1.70;;;12.30;99.90;;;;;;5074120;28;20116;-73
2022/08/06 02:12:48;;;;;;;4.85;1.63;;;12.30;99.90;;;;;;5073720;28;20163;-73
2022/08/06 02:15:18;;;;;;;6.68;1.55;;;12.30;99.90;;;;;;5073851;28;20056;-73
2022/08/06 02:17:53;;;;;;;3.70;1.80;;;12.30;99.90;;;;;;5073646;28;20126;-73
2022/08/06 02:20:34;;;;;;;9.07;2.10;;;12.30;99.90;;;;;;5073430;28;20052;-73
2022/08/06 02:23:02;;;;;;;6.05;1.58;;;12.30;99.90;;;;;;5072449;28;20124;-73
2022/08/06 02:25:29;;;;;;;3.83;1.70;;;12.20;99.90;;;;;;5073425;28;20080;-73
2022/08/06 02:27:57;;;;;;;2.80;1.45;;;12.20;99.90;;;;;;5073614;28;20040;-73
2022/08/06 02:30:25;;;;;;;4.68;1.85;;;12.20;99.90;;;;;;5073373;28;20044;-73
2022/08/06 02:32:50;;;;;;;4.47;2.50;;;12.20;99.90;;;;;;5073319;28;20048;-73
2022/08/06 02:35:17;;;;;;;5.15;2.22;;;12.10;99.90;;;;;;5073238;28;20041;-73
2022/08/06 02:37:47;;;;;;;6.70;2.55;;;12.10;99.90;;;;;;5073261;28;20544;-73
2022/08/06 02:40:27;;;;;;;8.65;2.70;;;12.10;99.90;;;;;;5073237;28;20123;-73
2022/08/06 02:43:18;;;;;;;5.93;2.97;;;12.10;99.90;;;;;;5073158;28;20072;-73
2022/08/06 02:46:06;;;;;;;5.57;2.75;;;12.00;99.90;;;;;;5068132;28;20071;-73
2022/08/06 02:48:47;;;;;;;5.97;2.80;;;12.00;99.90;;;;;;5073022;28;20041;-72
2022/08/06 02:51:17;;;;;;;6.25;3.03;;;12.00;99.90;;;;;;5073005;28;20516;-73
2022/08/06 02:53:56;;;;;;;4.72;2.72;;;12.00;99.90;;;;;;5073193;28;20520;-73
2022/08/06 02:56:24;;;;;;;4.93;2.90;;;12.00;99.90;;;;;;5056185;28;20052;-73
2022/08/06 02:58:53;;;;;;;6.88;2.75;;;11.90;99.90;;;;;;5072762;28;20111;-73
2022/08/06 03:01:23;;;;;;;5.25;2.85;;;11.90;99.90;;;;;;5072776;28;20048;-73
2022/08/06 03:03:52;;;;;;;4.13;2.55;;;11.90;99.90;;;;;;5072737;28;20417;-74
2022/08/06 03:06:19;;;;;;;7.07;2.58;;;11.80;99.90;;;;;;5072955;28;20402;-73
2022/08/06 03:08:46;;;;;;;3.97;2.55;;;11.70;99.90;;;;;;5055933;28;20047;-73
2022/08/06 03:11:13;;;;;;;8.15;2.50;;;11.70;99.90;;;;;;5055932;28;20028;-73
2022/08/06 03:13:40;;;;;;;5.38;2.25;;;11.70;99.90;;;;;;5072505;28;20040;-73
2022/08/06 03:16:07;;;;;;;3.42;2.10;;;11.70;99.90;;;;;;5072424;28;20147;-73
2022/08/06 03:18:34;;;;;;;5.43;2.20;;;11.70;99.90;;;;;;5072365;28;20086;-72
2022/08/06 03:21:01;;;;;;;4.22;2.10;;;11.70;99.90;;;;;;5072279;28;20044;-73
2022/08/06 03:23:29;;;;;;;3.85;2.20;;;11.70;99.90;;;;;;5072628;28;20082;-73
2022/08/06 03:25:56;;;;;;;5.43;2.25;;;11.70;99.90;;;;;;5072178;28;20444;-73
2022/08/06 03:28:23;;;;;;;4.05;2.22;;;11.70;99.90;;;;;;5055844;28;20133;-73
2022/08/06 03:30:50;;;;;;;5.03;2.13;;;11.80;99.90;;;;;;5072224;28;20048;-73
2022/08/06 03:33:17;;;;;;;5.95;2.10;;;11.80;99.90;;;;;;5072136;28;20043;-73
2022/08/06 03:35:44;;;;;;;4.40;2.00;;;11.70;99.90;;;;;;5071846;28;20119;-73
2022/08/06 03:38:11;;;;;;;4.78;2.13;;;11.70;99.90;;;;;;5072379;28;20123;-73
2022/08/06 03:40:39;;;;;;;3.95;1.90;;;11.80;99.90;;;;;;5072107;28;20090;-73
2022/08/06 03:43:05;;;;;;;4.70;1.92;;;11.70;99.90;;;;;;5072322;28;20040;-73
2022/08/06 03:45:34;;;;;;;5.53;2.10;;;11.70;99.90;;;;;;5071868;28;20036;-73
2022/08/06 03:48:03;;;;;;;3.47;2.00;;;11.70;99.90;;;;;;5072430;28;20037;-74
2022/08/06 03:50:35;;;;;;;4.68;1.88;;;11.60;99.90;;;;;;5072277;28;20088;-73
2022/08/06 03:53:04;;;;;;;2.87;1.63;;;11.70;99.90;;;;;;5055349;28;20052;-73
2022/08/06 03:55:37;;;;;;;3.05;1.85;;;11.60;99.90;;;;;;5071879;28;20083;-73
2022/08/06 03:58:09;;;;;;;3.03;1.70;;;11.70;99.90;;;;;;5071960;28;20044;-74
2022/08/06 04:00:40;;;;;;;5.90;2.00;;;11.60;99.90;;;;;;5071962;28;20040;-73
2022/08/06 04:03:08;;;;;;;5.03;1.95;;;11.70;99.90;;;;;;5071885;28;20166;-73
2022/08/06 04:05:36;;;;;;;3.92;1.80;;;11.60;99.90;;;;;;5071694;28;20040;-73
2022/08/06 04:08:05;;;;;;;3.40;1.90;;;11.60;99.90;;;;;;5055143;28;20068;-73
2022/08/06 04:10:36;;;;;;;3.40;1.95;;;11.60;99.90;;;;;;5071771;28;20079;-73
2022/08/06 04:13:08;;;;;;;3.63;1.90;;;11.50;99.90;;;;;;5071792;28;20032;-73
2022/08/06 04:15:36;;;;;;;6.13;2.05;;;11.60;99.90;;;;;;5071912;28;20497;-73
2022/08/06 04:18:02;;;;;;;2.42;1.65;;;11.50;99.90;;;;;;5071679;28;20504;-73
2022/08/06 04:20:31;;;;;;;6.20;2.08;;;11.60;99.90;;;;;;5071527;28;20036;-73
2022/08/06 04:22:56;;;;;;;7.05;2.33;;;11.60;99.90;;;;;;5071678;28;20562;-73
2022/08/06 04:25:24;;;;;;;4.53;1.90;;;11.60;99.90;;;;;;5054730;28;20041;-73
2022/08/06 04:27:50;;;;;;;4.95;1.90;;;11.60;99.90;;;;;;5071892;28;20044;-73
2022/08/06 04:30:16;;;;;;;4.07;2.10;;;11.60;99.90;;;;;;5071568;28;20123;-73
2022/08/06 04:32:45;;;;;;;5.07;2.30;;;11.60;99.90;;;;;;5071592;28;20119;-73
2022/08/06 04:35:11;;;;;;;3.35;2.10;;;11.60;99.90;;;;;;5071719;28;20036;-73
2022/08/06 04:37:37;;;;;;;2.58;1.52;;;11.70;99.90;;;;;;5071500;28;20067;-73
2022/08/06 04:40:06;;;;;;;3.85;2.10;;;11.70;99.90;;;;;;5071726;28;20047;-73
2022/08/06 04:42:32;;;;;;;2.92;1.20;;;11.70;99.90;;;;;;5071998;28;20041;-73
2022/08/06 04:44:58;;;;;;;4.20;1.60;;;11.70;99.90;;;;;;5071454;28;20624;-72
2022/08/06 04:47:24;;;;;;;3.47;1.90;;;11.70;99.90;;;;;;5074311;28;20039;-73
2022/08/06 04:49:50;;;;;;;3.78;2.00;;;11.70;99.90;;;;;;5075510;28;20076;-73
2022/08/06 04:52:26;;;;;;;2.70;2.10;;;11.80;99.90;;;;;;5075191;28;20075;-74
2022/08/06 04:54:52;;;;;;;5.55;2.33;;;11.80;99.90;;;;;;5075196;28;20449;-74
2022/08/06 04:57:17;;;;;;;6.47;2.20;;;11.70;99.90;;;;;;5075040;28;20120;-73
2022/08/06 04:59:44;;;;;;;3.75;2.20;;;11.70;99.90;;;;;;5075349;28;20121;-73
2022/08/06 05:02:10;;;;;;;2.35;1.60;;;11.70;99.90;;;;;;5075005;28;20040;-73
2022/08/06 05:04:37;;;;;;;6.85;2.13;;;11.80;99.90;;;;;;5074907;28;20036;-74
2022/08/06 05:07:16;;;;;;;3.75;2.25;;;11.90;99.90;;;;;;5075093;28;20040;-74
2022/08/06 05:09:42;;;;;;;5.13;1.88;;;11.90;99.90;;;;;;5076069;28;20036;-73
2022/08/06 05:12:34;;;;;;;2.95;1.60;;;11.90;99.90;;;;;;5075103;28;20059;-74
2022/08/06 05:15:11;;;;;;;5.57;2.10;;;12.00;99.90;;;;;;5058296;28;20048;-73
2022/08/06 05:17:44;;;;;;;5.97;2.10;;;12.00;99.90;;;;;;5075084;28;20055;-73
2022/08/06 05:20:18;;;;;;;6.38;1.80;;;12.10;99.90;;;;;;5074598;28;20051;-73
2022/08/06 05:22:48;;;;;;;4.15;2.00;;;12.20;99.90;;;;;;5074663;28;20489;-74
2022/08/06 05:25:14;;;;;;;6.07;2.30;;;12.30;99.90;;;;;;5074449;28;20036;-72
2022/08/06 05:27:41;;;;;;;2.65;1.85;;;12.20;99.90;;;;;;5074746;28;20041;-72
2022/08/06 05:30:08;;;;;;;3.95;1.77;;;12.30;99.90;;;;;;5075386;28;20036;-73
2022/08/06 05:32:49;;;;;;;6.13;2.20;;;12.40;99.90;;;;;;5074462;28;20033;-73
2022/08/06 05:35:15;;;;;;;4.40;1.75;;;12.50;99.90;;;;;;5058025;28;20048;-73
2022/08/06 05:37:40;;;;;;;4.28;2.25;;;12.50;99.90;;;;;;5074692;28;20040;-73
2022/08/06 05:40:07;;;;;;;3.80;1.80;;;12.60;99.90;;;;;;5074380;28;20523;-73
2022/08/06 05:42:33;;;;;;;4.25;1.90;;;12.70;99.90;;;;;;5074596;28;20083;-73
2022/08/06 05:44:59;;;;;;;4.55;1.60;;;12.80;99.90;;;;;;5057455;28;20052;-73
2022/08/06 05:47:30;;;;;;;5.75;1.75;;;12.90;99.90;;;;;;5074462;28;20390;-73
2022/08/06 05:50:11;;;;;;;5.45;1.88;;;13.00;99.90;;;;;;5074233;28;20032;-73
2022/08/06 05:52:49;;;;;;;5.38;1.77;;;13.10;99.90;;;;;;5057513;28;20032;-74
2022/08/06 05:55:21;;;;;;;4.40;1.60;;;13.20;99.90;;;;;;5074650;28;20048;-73
2022/08/06 05:57:56;;;;;;;4.80;1.73;;;13.30;99.90;;;;;;5073870;28;20082;-74
2022/08/06 06:00:25;;;;;;;3.55;1.65;;;13.40;99.90;;;;;;5073957;28;20048;-73
2022/08/06 06:02:54;;;;;;;3.40;1.40;;;13.50;99.90;;;;;;5073916;28;20409;-74
2022/08/06 06:05:22;;;;;;;4.57;1.63;;;13.50;99.90;;;;;;5057075;28;20496;-73
2022/08/06 06:07:49;;;;;;;3.25;1.30;;;13.60;99.90;;;;;;5074117;28;20171;-73
2022/08/06 06:10:16;;;;;;;3.50;1.08;;;13.70;99.90;;;;;;5073875;28;20040;-73
2022/08/06 06:12:42;;;;;;;3.13;1.15;;;13.80;99.90;;;;;;5057003;28;20397;-73
2022/08/06 06:15:13;;;;;;;3.20;1.02;;;13.90;99.90;;;;;;5073774;28;20051;-73
2022/08/06 06:17:57;;;;;;;4.15;1.23;;;14.00;99.90;;;;;;5074138;28;20055;-73
2022/08/06 06:20:35;;;;;;;1.85;0.90;;;14.20;99.90;;;;;;5073615;28;20051;-73
2022/08/06 06:23:08;;;;;;;2.75;1.00;;;14.30;99.90;;;;;;5073592;28;20504;-73
2022/08/06 06:25:53;;;;;;;4.05;0.88;;;14.40;99.90;;;;;;5073407;28;20124;-73
2022/08/06 06:28:48;;;;;;;3.97;1.00;;;14.50;99.90;;;;;;5073519;28;20087;-74
2022/08/06 06:31:24;;;;;;;7.72;0.93;;;14.60;99.90;;;;;;5073950;28;20439;-74
2022/08/06 06:34:01;;;;;;;3.60;0.70;;;14.80;99.90;;;;;;5073355;28;20128;-73
2022/08/06 06:36:43;;;;;;;3.53;0.80;;;14.90;99.90;;;;;;5073244;28;20481;-73
2022/08/06 06:39:21;;;;;;;4.57;1.52;;;15.00;99.90;;;;;;5073566;28;20117;-74
2022/08/06 06:41:56;;;;;;;2.00;0.63;;;15.20;99.90;;;;;;5073240;28;20086;-74
2022/08/06 06:44:37;;;;;;;3.22;1.05;;;15.30;99.90;;;;;;5073326;28;20041;-74
2022/08/06 06:47:18;;;;;;;4.03;0.90;;;15.40;99.90;;;;;;5073024;28;20485;-74
2022/08/06 06:49:48;;;;;;;4.72;1.13;;;15.60;99.90;;;;;;5073011;28;20119;-73
2022/08/06 06:52:22;;;;;;;3.33;0.75;;;15.70;99.90;;;;;;5074404;28;20041;-73
2022/08/06 06:55:20;;;;;;;4.40;0.77;;;15.80;99.90;;;;;;5072883;28;20098;-74
2022/08/06 06:57:52;;;;;;;2.97;0.75;;;15.90;99.90;;;;;;5055698;28;20135;-74
2022/08/06 07:00:19;;;;;;;2.28;0.70;;;16.00;99.90;;;;;;5072799;28;20044;-72
2022/08/06 07:02:48;;;;;;;1.50;0.60;;;16.10;99.90;;;;;;5072791;28;20409;-72
2022/08/06 07:05:15;;;;;;;2.95;0.77;;;16.20;99.90;;;;;;5072545;28;20075;-72
2022/08/06 07:07:43;;;;;;;4.82;1.08;;;16.30;99.90;;;;;;5073875;28;20451;-72
2022/08/06 07:10:12;;;;;;;3.70;0.90;;;16.40;99.90;;;;;;5072038;28;20408;-72
2022/08/06 07:12:41;;;;;;;3.22;0.52;;;16.50;99.90;;;;;;5072598;28;20048;-72
2022/08/06 07:15:09;;;;;;;1.85;0.50;;;16.60;99.90;;;;;;5072658;28;20044;-72
2022/08/06 07:17:38;;;;;;;3.13;0.57;;;16.70;99.90;;;;;;5072464;28;20120;-72
2022/08/06 07:20:08;;;;;;;1.75;0.63;;;16.80;99.90;;;;;;5072418;28;20033;-71
2022/08/06 07:22:41;;;;;;;3.90;0.75;;;16.90;99.90;;;;;;5072660;28;20051;-72
2022/08/06 07:25:08;;;;;;;1.65;0.43;;;17.00;99.90;;;;;;5072429;28;20098;-72
2022/08/06 07:27:41;;;;;;;2.78;0.60;;;17.10;99.90;;;;;;5072567;28;20067;-72
2022/08/06 07:30:08;;;;;;;3.92;0.60;;;17.10;99.90;;;;;;5072315;28;20047;-73
2022/08/06 07:32:35;;;;;;;3.40;0.50;;;17.10;99.90;;;;;;5072528;28;20427;-73
2022/08/06 07:35:03;;;;;;;3.42;0.60;;;17.20;99.90;;;;;;5072090;28;20123;-72
2022/08/06 07:37:30;;;;;;;2.63;0.32;;;17.30;99.90;;;;;;5072187;28;20048;-72
2022/08/06 07:39:58;;;;;;;4.43;0.60;;;17.40;99.90;;;;;;5072520;28;20044;-73
2022/08/06 07:42:24;;;;;;;2.88;0.50;;;17.40;99.90;;;;;;5072131;28;20048;-72
2022/08/06 07:44:56;;;;;;;3.17;0.47;;;17.50;99.90;;;;;;5071986;28;20425;-72
2022/08/06 07:47:28;;;;;;;2.88;0.50;;;17.70;99.90;;;;;;5072083;28;20051;-72
2022/08/06 07:49:57;;;;;;;4.82;0.70;;;17.80;99.90;;;;;;5072053;28;20120;-72
2022/08/06 07:52:24;;;;;;;5.55;0.50;;;17.90;99.90;;;;;;5071974;28;20413;-72
2022/08/06 07:54:50;;;;;;;1.63;0.32;;;17.80;99.90;;;;;;5071915;28;20098;-72
2022/08/06 07:57:16;;;;;;;4.13;0.75;;;17.90;99.90;;;;;;5071812;28;20085;-72
2022/08/06 07:59:42;;;;;;;4.72;0.50;;;18.00;99.90;;;;;;5071921;28;20044;-72
2022/08/06 08:02:10;;;;;;;6.32;0.55;;;18.20;99.90;;;;;;5055204;28;20044;-73
2022/08/06 08:07:22;;;;;;;3.38;0.50;;;18.20;99.90;;;;;;5071758;28;20037;-72
2022/08/06 08:09:48;;;;;;;3.22;0.52;;;18.10;99.90;;;;;;5072096;28;20397;-72
2022/08/06 08:12:17;;;;;;;6.13;0.60;;;18.10;99.90;;;;;;5072109;28;20093;-73
2022/08/06 08:14:44;;;;;;;3.25;0.57;;;17.90;99.90;;;;;;5071751;28;20075;-73
2022/08/06 08:17:10;;;;;;;3.55;0.50;;;18.00;99.90;;;;;;5071693;28;20044;-72
2022/08/06 08:19:37;;;;;;;2.42;0.47;;;18.20;99.90;;;;;;5071761;28;20044;-72
2022/08/06 08:22:08;;;;;;;1.92;0.40;;;18.50;99.90;;;;;;5074268;28;20507;-73
2022/08/06 08:24:35;;;;;;;2.47;0.45;;;18.80;99.90;;;;;;5076043;28;20044;-73
2022/08/06 08:27:03;;;;;;;2.22;0.50;;;19.10;99.90;;;;;;5075719;28;20416;-72
2022/08/06 08:29:29;;;;;;;4.80;0.60;;;19.40;99.90;;;;;;5076240;28;20072;-73
2022/08/06 08:31:56;;;;;;;1.00;0.30;;;19.50;99.90;;;;;;5058905;28;20041;-73
2022/08/06 08:34:21;;;;;;;1.80;0.50;;;19.40;99.90;;;;;;5075598;28;20086;-72
2022/08/06 08:36:47;;;;;;;3.72;0.52;;;19.30;99.90;;;;;;5075825;28;20036;-72
2022/08/06 08:39:14;;;;;;;2.60;0.40;;;19.10;99.90;;;;;;5075529;28;20409;-72
2022/08/06 08:41:45;;;;;;;2.03;0.40;;;19.10;99.90;;;;;;5075454;28;20485;-72
2022/08/06 08:44:11;;;;;;;3.15;0.60;;;19.20;99.90;;;;;;5075398;28;20040;-72
2022/08/06 08:46:42;;;;;;;3.45;0.73;;;19.30;99.90;;;;;;5075305;28;20094;-72
2022/08/06 08:49:28;;;;;;;2.90;0.50;;;19.50;99.90;;;;;;5075646;28;20037;-72
2022/08/06 08:51:55;;;;;;;2.92;0.50;;;19.70;99.20;;;;;;5075288;28;20033;-72
2022/08/06 08:54:22;;;;;;;3.30;0.70;;;19.80;99.40;;;;;;5075184;28;20538;-72
2022/08/06 08:56:49;;;;;;;3.33;1.05;;;20.10;99.40;;;;;;5075334;28;20036;-72
2022/08/06 08:59:17;;;;;;;2.83;0.70;;;20.20;97.80;;;;;;5075391;28;20044;-72
2022/08/06 09:01:43;;;;;;;6.82;1.23;;;20.30;97.20;;;;;;5075065;28;20413;-72
2022/08/06 09:04:09;;;;;;;3.47;1.13;;;20.20;97.00;;;;;;5058403;28;20417;-72
2022/08/06 09:06:37;;;;;;;4.10;1.40;;;20.10;97.30;;;;;;5074789;28;20048;-72
2022/08/06 09:09:04;;;;;;;3.83;1.25;;;19.90;98.50;;;;;;5074934;28;20043;-72
2022/08/06 09:11:34;;;;;;;2.60;1.42;;;19.80;99.70;;;;;;5074835;28;20047;-73
2022/08/06 09:14:04;;;;;;;4.18;1.30;;;19.70;99.90;;;;;;5074811;28;20032;-71
2022/08/06 09:16:32;;;;;;;3.65;1.20;;;19.60;99.90;;;;;;5074995;28;20044;-72
2022/08/06 09:18:59;;;;;;;3.58;1.40;;;19.90;99.90;;;;;;5075376;28;20048;-72
2022/08/06 09:21:25;;;;;;;3.25;1.25;;;20.30;99.90;;;;;;5074774;28;20076;-73
2022/08/06 09:23:51;;;;;;;4.07;1.50;;;20.70;99.90;;;;;;5074580;28;20117;-73
2022/08/06 09:26:17;;;;;;;4.72;1.55;;;21.00;95.60;;;;;;5074428;28;20037;-72
2022/08/06 09:28:43;;;;;;;3.00;1.13;;;21.20;95.20;;;;;;5074513;28;20105;-72
2022/08/06 09:31:17;;;;;;;3.03;1.55;;;21.40;92.80;;;;;;5074497;28;20508;-73
2022/08/06 09:33:53;;;;;;;3.55;1.50;;;21.70;91.20;;;;;;5074057;28;20485;-73
2022/08/06 09:36:20;;;;;;;3.85;1.60;;;21.80;85.60;;;;;;5074618;28;20058;-72
2022/08/06 09:38:51;;;;;;;2.80;1.40;;;21.90;83.40;;;;;;5074864;28;20436;-73
2022/08/06 09:41:18;;;;;;;4.03;1.27;;;22.10;82.30;;;;;;5074344;28;20079;-73
2022/08/06 09:43:45;;;;;;;3.65;1.30;;;22.30;84.60;;;;;;5057672;28;20040;-73
2022/08/06 09:46:11;;;;;;;5.28;1.60;;;22.60;83.90;;;;;;5074043;28;20072;-72
2022/08/06 09:48:37;;;;;;;2.60;1.23;;;22.90;81.20;;;;;;5057448;28;20068;-74
2022/08/06 09:51:03;;;;;;;2.88;1.30;;;22.90;71.80;;;;;;5074118;28;20043;-73
2022/08/06 09:53:29;;;;;;;2.17;1.30;;;22.80;65.70;;;;;;5074199;28;20401;-73
2022/08/06 09:55:56;;;;;;;3.95;1.70;;;22.80;60.50;;;;;;5074108;28;20046;-74
2022/08/06 09:58:36;;;;;;;4.68;1.40;;;22.90;61.10;;;;;;5074011;28;20102;-73
2022/08/06 10:01:20;;;;;;;2.60;1.20;;;23.10;60.00;;;;;;5073983;28;20119;-73
2022/08/06 10:03:45;;;;;;;2.30;1.40;;;23.20;58.50;;;;;;5074234;28;20090;-73
2022/08/06 10:06:14;;;;;;;3.10;1.40;;;23.10;58.30;;;;;;5073767;28;20036;-73
2022/08/06 10:08:41;;;;;;;2.65;1.17;;;23.00;59.10;;;;;;5073852;28;20055;-74
2022/08/06 10:11:07;;;;;;;2.83;1.25;;;23.00;58.90;;;;;;5057091;28;20036;-74
2022/08/06 10:13:34;;;;;;;3.97;1.73;;;23.10;61.10;;;;;;5073796;28;20039;-73
2022/08/06 10:16:14;;;;;;;3.28;1.50;;;23.10;59.10;;;;;;5073845;28;20040;-72
2022/08/06 10:18:42;;;;;;;4.35;1.50;;;23.20;59.60;;;;;;5073923;28;20049;-72
2022/08/06 10:21:18;;;;;;;5.53;1.50;;;23.50;61.20;;;;;;5073535;28;20072;-73
2022/08/06 10:23:55;;;;;;;3.28;1.42;;;23.40;61.00;;;;;;5073567;28;20413;-73
2022/08/06 10:26:30;;;;;;;2.55;1.30;;;23.20;59.60;;;;;;5073386;28;20052;-72
2022/08/06 10:29:06;;;;;;;1.80;1.20;;;22.80;59.10;;;;;;5073467;28;20420;-72
2022/08/06 10:31:36;;;;;;;3.00;1.08;;;22.50;61.90;;;;;;5073719;28;20033;-73
2022/08/06 10:34:10;;;;;;;2.08;0.85;;;22.30;65.00;;;;;;5073623;28;20565;-73
2022/08/06 10:37:05;;;;;;;3.38;1.13;;;22.20;66.90;;;;;;5073234;28;20051;-72
2022/08/06 10:39:34;;;;;;;3.00;1.23;;;22.10;67.60;;;;;;5073252;28;20052;-73
2022/08/06 10:42:01;;;;;;;2.53;1.30;;;22.00;69.40;;;;;;5073169;28;20044;-73
2022/08/06 10:44:28;;;;;;;4.18;1.02;;;22.00;71.20;;;;;;5072130;28;20124;-73
2022/08/06 10:46:54;;;;;;;3.78;1.38;;;21.90;70.30;;;;;;5056378;28;20075;-72
2022/08/06 10:49:20;;;;;;;4.63;1.30;;;21.90;71.60;;;;;;5073452;28;20076;-72
2022/08/06 10:51:47;;;;;;;3.08;1.10;;;21.90;73.30;;;;;;5073238;28;20072;-73
2022/08/06 10:54:14;;;;;;;2.72;1.00;;;21.80;72.30;;;;;;5056386;28;20071;-73
2022/08/06 10:56:40;;;;;;;3.83;1.40;;;21.80;72.80;;;;;;5073060;28;20087;-73
2022/08/06 10:59:06;;;;;;;3.42;1.00;;;21.80;72.80;;;;;;5072851;28;20044;-72
2022/08/06 11:02:03;;;;;;;1.27;0.95;;;21.90;72.40;;;;;;5072858;28;20040;-72
2022/08/06 11:04:55;;;;;;;4.45;1.30;;;22.10;73.00;;;;;;5067092;28;20086;-73
2022/08/06 11:07:59;;;;;;;4.20;1.17;;;22.10;71.80;;;;;;5072867;28;20127;-71
2022/08/06 11:10:43;;;;;;;3.65;1.23;;;22.10;71.70;;;;;;5035177;28;20243;-72
2022/08/06 11:13:23;;;;;;;4.40;1.35;;;22.10;70.90;;;;;;5035134;28;20057;-73
2022/08/06 11:15:50;;;;;;;2.78;1.30;;;22.00;69.90;;;;;;5035093;28;20047;-71
2022/08/06 11:18:16;;;;;;;3.67;1.20;;;22.00;69.30;;;;;;5035393;28;20151;-73
2022/08/06 11:20:47;;;;;;;2.95;1.20;;;22.00;68.60;;;;;;5034878;28;20064;-73
2022/08/06 11:23:12;;;;;;;4.07;1.30;;;22.00;68.60;;;;;;5034961;28;20120;-73
2022/08/06 11:25:42;;;;;;;2.50;1.10;;;22.00;67.80;;;;;;5034626;28;20132;-72
2022/08/06 11:28:09;;;;;;;4.35;1.42;;;22.00;66.00;;;;;;5035161;28;20119;-72
2022/08/06 11:30:45;;;;;;;4.78;1.45;;;22.00;64.50;;;;;;5035078;28;20047;-72
2022/08/06 11:33:12;;;;;;;3.20;1.10;;;22.00;63.90;;;;;;5034968;28;20132;-73
2022/08/06 11:35:39;;;;;;;3.10;1.25;;;22.10;63.40;;;;;;5034660;28;20128;-72
2022/08/06 11:38:08;;;;;;;3.00;1.17;;;22.10;63.90;;;;;;5034969;28;20049;-72
2022/08/06 11:40:56;;;;;;;4.45;1.20;;;22.00;62.70;;;;;;5034970;28;20107;-72
2022/08/06 11:43:40;;;;;;;2.10;1.15;;;21.90;62.60;;;;;;5034615;28;20051;-72
2022/08/06 11:46:21;;;;;;;2.03;1.13;;;22.00;63.90;;;;;;5053439;28;20052;-72
2022/08/06 11:48:59;;;;;;;4.95;1.20;;;22.20;62.10;;;;;;5071991;28;20141;-72
2022/08/06 11:51:51;;;;;;;3.28;1.20;;;22.30;61.50;;;;;;5072063;28;20037;-73
2022/08/06 11:54:18;;;;;;;1.92;1.00;;;22.30;61.00;;;;;;5071931;28;20032;-74
2022/08/06 11:57:01;;;;;;;5.00;1.20;;;22.30;63.10;;;;;;5071647;28;20036;-72
2022/08/06 11:59:29;;;;;;;2.50;1.10;;;22.30;64.20;;;;;;5071890;28;20040;-72
2022/08/06 12:01:55;;;;;;;4.90;1.48;;;22.30;64.20;;;;;;5072087;28;20089;-73
2022/08/06 12:04:36;;;;;;;3.60;1.65;;;22.30;64.00;;;;;;5071818;28;20131;-73
2022/08/06 12:07:21;;;;;;;2.30;1.17;;;22.30;63.40;;;;;;5072031;28;20527;-72
2022/08/06 12:10:06;;;;;;;2.38;1.20;;;22.30;64.10;;;;;;5055069;28;20074;-72
2022/08/06 12:12:49;;;;;;;3.05;1.45;;;22.40;64.00;;;;;;5071844;28;20040;-73
2022/08/06 12:15:19;;;;;;;5.60;1.58;;;22.40;64.40;;;;;;5071628;28;20044;-73
2022/08/06 12:17:54;;;;;;;3.33;1.38;;;22.50;65.20;;;;;;5071689;28;20055;-72
2022/08/06 12:20:34;;;;;;;2.90;1.35;;;22.50;65.20;;;;;;5071509;28;20562;-73
2022/08/06 12:23:03;;;;;;;3.95;1.60;;;22.80;66.40;;;;;;5071916;28;20048;-73
2022/08/06 12:25:32;;;;;;;2.55;1.42;;;23.20;65.60;;;;;;5071508;28;20413;-72
2022/08/06 12:27:59;;;;;;;3.28;1.67;;;23.50;62.20;;;;;;5071888;28;20037;-72
2022/08/06 12:30:25;;;;;;;2.80;1.40;;;23.80;62.70;;;;;;5071618;28;20040;-73
2022/08/06 12:33:00;;;;;;;2.95;1.45;;;24.10;62.50;;;;;;5071574;28;20037;-74
2022/08/06 12:35:26;;;;;;;4.38;1.45;;;24.50;58.30;;;;;;5054883;28;20053;-72
2022/08/06 12:37:55;;;;;;;3.60;1.65;;;24.70;57.90;;;;;;5071803;28;20036;-73
2022/08/06 12:40:26;;;;;;;2.40;1.50;;;25.00;57.20;;;;;;5071513;28;20107;-73
2022/08/06 12:42:53;;;;;;;3.97;1.45;;;25.30;55.60;;;;;;5071567;28;20041;-72
2022/08/06 12:45:23;;;;;;;3.22;1.60;;;25.40;54.70;;;;;;5071276;28;20036;-72
2022/08/06 12:48:10;;;;;;;3.55;1.70;;;25.30;54.60;;;;;;5071472;28;20048;-73
2022/08/06 12:50:41;;;;;;;3.05;1.50;;;25.00;52.90;;;;;;5071410;28;20515;-72
2022/08/06 12:53:18;;;;;;;3.55;1.40;;;24.60;54.20;;;;;;5071428;28;20493;-73
2022/08/06 12:55:53;;;;;;;5.10;1.75;;;24.30;54.00;;;;;;5071324;28;20045;-72
2022/08/06 12:58:28;;;;;;;3.75;1.73;;;24.00;54.00;;;;;;5054807;28;20086;-72
2022/08/06 13:00:57;;;;;;;3.40;1.70;;;23.70;55.40;;;;;;5071712;28;20519;-73
2022/08/06 13:03:25;;;;;;;5.43;1.60;;;23.50;56.00;;;;;;5071599;28;20043;-73
2022/08/06 13:05:54;;;;;;;2.22;1.58;;;23.20;56.80;;;;;;5071368;28;20059;-72
2022/08/06 13:08:20;;;;;;;2.60;1.50;;;23.10;57.20;;;;;;5073905;28;20040;-72